Time;durP1;ratioP1;P1;durP2;ratioP2;P2;SDS_P1;SDS_P2;PMS_P1;PMS_P2;Temp;Humidity;BMP_temperature;BMP_pressure;BME280_temperature;BME280_humidity;BME280_pressure;Samples;Min_cycle;Max_cycle;Signal;HPM_P1;HPM_P2
2022/11/10 00:00:30;;;;;;;6.43;5.37;;;11.00;99.90;;;;;;5032713;28;20237;-66
2022/11/10 00:03:03;;;;;;;4.97;4.73;;;11.00;99.90;;;;;;5033270;28;20542;-66
2022/11/10 00:05:30;;;;;;;5.80;5.50;;;11.00;99.90;;;;;;5013528;28;20172;-66
2022/11/10 00:07:56;;;;;;;10.30;5.70;;;11.00;99.90;;;;;;5013476;28;20722;-66
2022/11/10 00:10:22;;;;;;;5.43;5.13;;;11.00;99.90;;;;;;5032418;28;20234;-67
2022/11/10 00:12:47;;;;;;;6.17;5.70;;;10.90;99.90;;;;;;5033262;28;20652;-67
2022/11/10 00:18:01;;;;;;;5.77;5.23;;;10.90;99.90;;;;;;5033207;28;20256;-67
2022/11/10 00:20:26;;;;;;;5.73;5.23;;;10.90;99.90;;;;;;5032960;28;20191;-66
2022/11/10 00:22:54;;;;;;;5.47;5.07;;;10.90;99.90;;;;;;5032916;28;20179;-67
2022/11/10 00:25:20;;;;;;;6.40;5.80;;;11.00;99.90;;;;;;5032645;28;20552;-66
2022/11/10 00:27:46;;;;;;;6.97;6.13;;;10.90;99.90;;;;;;5032900;28;20179;-66
2022/11/10 00:30:12;;;;;;;5.77;5.37;;;11.00;99.90;;;;;;5030852;28;20230;-67
2022/11/10 00:32:37;;;;;;;9.80;5.33;;;11.00;99.90;;;;;;5034128;28;20179;-67
2022/11/10 00:35:04;;;;;;;5.37;4.97;;;11.00;99.90;;;;;;5041542;28;20172;-66
2022/11/10 00:37:29;;;;;;;5.90;5.20;;;10.90;99.90;;;;;;5041579;28;20232;-67
2022/11/10 00:39:55;;;;;;;9.00;4.93;;;10.90;99.90;;;;;;5036386;28;20203;-66
2022/11/10 00:42:20;;;;;;;6.83;4.73;;;10.90;99.90;;;;;;5032696;28;20183;-66
2022/11/10 00:44:46;;;;;;;6.97;4.73;;;10.90;99.90;;;;;;5032619;28;20540;-67
2022/11/10 00:47:12;;;;;;;5.77;5.37;;;10.80;99.90;;;;;;5032273;28;20210;-66
2022/11/10 00:49:37;;;;;;;11.30;5.73;;;10.70;99.90;;;;;;5032282;28;20187;-67
2022/11/10 00:52:03;;;;;;;6.33;5.83;;;10.70;99.90;;;;;;5032493;28;20310;-66
2022/11/10 00:54:29;;;;;;;5.93;5.40;;;10.60;99.90;;;;;;5032325;28;20178;-67
2022/11/10 00:56:54;;;;;;;7.13;6.50;;;10.50;99.90;;;;;;5032091;28;20180;-66
2022/11/10 00:59:20;;;;;;;6.03;5.23;;;10.50;99.90;;;;;;5031954;28;20195;-67
2022/11/10 01:01:46;;;;;;;8.23;5.07;;;10.50;99.90;;;;;;5032203;28;20510;-67
2022/11/10 01:04:11;;;;;;;7.77;4.80;;;10.50;99.90;;;;;;5032210;28;20175;-67
2022/11/10 01:06:37;;;;;;;6.77;4.57;;;10.40;99.90;;;;;;5032310;28;20179;-66
2022/11/10 01:09:03;;;;;;;5.30;4.57;;;10.40;99.90;;;;;;5031163;28;20626;-67
2022/11/10 01:11:28;;;;;;;6.50;5.40;;;10.30;99.90;;;;;;5037544;23;20327;-66
2022/11/10 01:13:55;;;;;;;6.40;5.43;;;10.30;99.90;;;;;;5012042;28;20176;-64
2022/11/10 01:16:23;;;;;;;6.00;5.50;;;10.20;99.90;;;;;;5012214;28;20164;-64
2022/11/10 01:18:51;;;;;;;9.00;5.50;;;10.20;99.90;;;;;;5012008;28;20557;-64
2022/11/10 01:21:17;;;;;;;5.73;5.27;;;10.10;99.90;;;;;;5012238;28;20184;-65
2022/11/10 01:23:42;;;;;;;5.03;4.63;;;10.10;99.90;;;;;;5012019;28;20184;-64
2022/11/10 01:26:08;;;;;;;5.53;4.30;;;10.10;99.90;;;;;;5012192;28;20164;-64
2022/11/10 01:28:35;;;;;;;5.60;5.20;;;10.10;99.90;;;;;;5011712;28;20188;-64
2022/11/10 01:31:06;;;;;;;5.00;4.70;;;10.00;99.90;;;;;;5011898;28;20572;-64
2022/11/10 01:33:33;;;;;;;6.23;5.63;;;10.00;99.90;;;;;;5011939;28;20180;-64
2022/11/10 01:35:59;;;;;;;6.13;5.53;;;10.00;99.90;;;;;;5012419;28;20175;-64
2022/11/10 01:38:30;;;;;;;5.63;5.20;;;10.00;99.90;;;;;;5011516;28;20215;-64
2022/11/10 01:40:55;;;;;;;6.77;5.70;;;10.10;99.90;;;;;;5011645;28;20184;-64
2022/11/10 01:43:21;;;;;;;5.20;4.90;;;10.10;99.90;;;;;;5011767;28;20176;-64
2022/11/10 01:45:49;;;;;;;9.43;5.80;;;10.10;99.90;;;;;;5011955;28;20176;-64
2022/11/10 01:48:35;;;;;;;5.57;5.07;;;10.10;99.90;;;;;;5010067;28;20665;-64
2022/11/10 01:51:22;;;;;;;8.00;5.93;;;10.10;99.90;;;;;;5011568;28;20230;-64
2022/11/10 01:54:00;;;;;;;5.33;5.00;;;10.10;99.90;;;;;;5011890;28;20180;-66
2022/11/10 01:56:28;;;;;;;9.10;5.90;;;10.10;99.90;;;;;;5010822;28;20184;-66
2022/11/10 01:58:58;;;;;;;6.97;5.17;;;10.10;99.90;;;;;;5011739;28;20294;-63
2022/11/10 02:01:24;;;;;;;8.37;5.23;;;10.00;99.90;;;;;;5011252;28;20653;-64
2022/11/10 02:03:55;;;;;;;5.13;4.77;;;10.00;99.90;;;;;;5011716;28;20199;-63
2022/11/10 02:06:27;;;;;;;9.23;4.73;;;10.00;99.90;;;;;;5011539;28;20180;-66
2022/11/10 02:08:54;;;;;;;5.30;4.83;;;10.10;99.90;;;;;;5011396;28;20172;-63
2022/11/10 02:11:20;;;;;;;5.43;5.03;;;10.10;99.90;;;;;;4991589;28;20200;-64
2022/11/10 02:13:46;;;;;;;5.80;4.83;;;10.10;99.90;;;;;;4992111;28;20199;-66
2022/11/10 02:16:12;;;;;;;5.00;4.60;;;10.00;99.90;;;;;;5011299;28;20641;-66
2022/11/10 02:18:38;;;;;;;4.97;4.60;;;10.10;99.90;;;;;;5010296;28;20689;-67
2022/11/10 02:21:08;;;;;;;5.40;4.90;;;10.10;99.90;;;;;;5011592;28;20347;-66
2022/11/10 02:23:36;;;;;;;5.90;5.40;;;10.10;99.90;;;;;;5015353;28;20175;-66
2022/11/10 02:26:04;;;;;;;12.40;5.60;;;10.10;99.90;;;;;;5015110;28;20527;-64
2022/11/10 02:28:35;;;;;;;5.27;4.80;;;10.20;99.90;;;;;;5015348;28;20251;-64
2022/11/10 02:31:01;;;;;;;4.97;4.67;;;10.20;99.90;;;;;;5014784;28;20204;-65
2022/11/10 02:33:27;;;;;;;8.60;5.20;;;10.10;99.90;;;;;;5015162;28;20238;-64
2022/11/10 02:35:53;;;;;;;5.70;4.70;;;10.20;99.90;;;;;;5013743;28;20697;-64
2022/11/10 02:38:18;;;;;;;8.83;5.90;;;10.10;99.90;;;;;;5014946;28;20211;-64
2022/11/10 02:40:44;;;;;;;8.70;5.23;;;10.20;99.90;;;;;;5014493;28;20200;-64
2022/11/10 02:43:13;;;;;;;6.37;5.33;;;10.20;99.90;;;;;;5015025;28;20637;-64
2022/11/10 02:45:42;;;;;;;5.53;5.13;;;10.20;99.90;;;;;;5014731;28;20180;-64
2022/11/10 02:48:08;;;;;;;5.33;5.00;;;10.20;99.90;;;;;;5014736;28;20180;-64
2022/11/10 02:50:34;;;;;;;5.37;4.73;;;10.20;99.90;;;;;;5014639;28;20559;-64
2022/11/10 02:53:00;;;;;;;5.73;5.33;;;10.20;99.90;;;;;;5014643;28;20187;-64
2022/11/10 02:55:26;;;;;;;8.23;5.30;;;10.10;99.90;;;;;;5014051;28;20207;-64
2022/11/10 02:57:51;;;;;;;6.13;5.53;;;10.10;99.90;;;;;;5014615;28;20474;-64
2022/11/10 03:00:17;;;;;;;11.77;5.83;;;10.10;99.90;;;;;;5014391;28;20188;-64
2022/11/10 03:02:43;;;;;;;7.43;5.13;;;10.10;99.90;;;;;;5014441;28;20649;-64
2022/11/10 03:05:09;;;;;;;8.57;5.00;;;10.00;99.90;;;;;;5014599;28;20218;-64
2022/11/10 03:07:34;;;;;;;5.37;4.83;;;10.10;99.90;;;;;;5014436;28;20180;-64
2022/11/10 03:10:00;;;;;;;5.30;4.80;;;10.00;99.90;;;;;;5014201;28;20593;-64
2022/11/10 03:12:26;;;;;;;7.03;6.17;;;10.00;99.90;;;;;;5012875;28;20179;-64
2022/11/10 03:14:51;;;;;;;7.53;4.63;;;10.10;99.90;;;;;;5014545;28;20266;-64
2022/11/10 03:17:17;;;;;;;5.43;5.00;;;10.10;99.90;;;;;;5014236;28;20176;-64
2022/11/10 03:19:43;;;;;;;4.87;4.67;;;10.10;99.90;;;;;;5014132;28;20295;-64
2022/11/10 03:22:08;;;;;;;6.23;5.73;;;10.00;99.90;;;;;;5013944;28;20175;-64
2022/11/10 03:24:34;;;;;;;6.73;5.93;;;10.10;99.90;;;;;;5014466;28;20455;-64
2022/11/10 03:26:59;;;;;;;9.00;5.03;;;10.10;99.90;;;;;;5014174;28;20211;-64
2022/11/10 03:29:25;;;;;;;4.50;4.30;;;10.00;99.90;;;;;;5013883;28;20546;-64
2022/11/10 03:31:51;;;;;;;6.60;6.00;;;10.10;99.90;;;;;;5013254;28;20172;-64
2022/11/10 03:34:17;;;;;;;9.90;5.60;;;10.10;99.90;;;;;;5015553;28;20206;-69
2022/11/10 03:36:43;;;;;;;10.93;5.23;;;10.10;99.90;;;;;;5018920;28;20176;-70
2022/11/10 03:39:08;;;;;;;8.67;5.10;;;10.10;99.90;;;;;;5018716;28;20712;-68
2022/11/10 03:41:34;;;;;;;6.30;5.00;;;10.20;99.90;;;;;;5019377;28;20199;-70
2022/11/10 03:44:00;;;;;;;8.47;4.97;;;10.20;99.90;;;;;;5017709;28;20181;-71
2022/11/10 03:46:25;;;;;;;8.17;5.20;;;10.20;99.90;;;;;;5019682;28;20176;-71
2022/11/10 03:48:51;;;;;;;24.80;6.57;;;10.20;99.90;;;;;;5017582;28;20641;-68
2022/11/10 03:51:16;;;;;;;6.67;5.70;;;10.10;99.90;;;;;;5017707;28;20271;-67
2022/11/10 03:53:42;;;;;;;5.90;5.03;;;10.20;99.90;;;;;;5016328;28;20188;-69
2022/11/10 03:56:08;;;;;;;5.70;5.20;;;10.10;99.90;;;;;;5017578;28;20180;-71
2022/11/10 03:58:33;;;;;;;5.83;5.30;;;10.10;99.90;;;;;;5020253;28;20208;-69
2022/11/10 04:00:59;;;;;;;13.60;5.60;;;10.10;99.90;;;;;;5018635;28;20231;-69
2022/11/10 04:03:25;;;;;;;5.60;5.20;;;10.00;99.90;;;;;;5018316;28;20180;-69
2022/11/10 04:16:48;;;;;;;8.17;5.13;;;9.90;99.90;;;;;;5011520;28;20187;-69
2022/11/10 04:19:14;;;;;;;6.50;5.87;;;9.80;99.90;;;;;;5018913;28;20200;-70
2022/11/10 04:21:40;;;;;;;8.77;5.47;;;9.80;99.90;;;;;;5017554;28;20204;-71
2022/11/10 04:24:07;;;;;;;7.20;5.87;;;9.80;99.90;;;;;;5018370;28;20258;-70
2022/11/10 04:26:36;;;;;;;11.53;5.30;;;9.80;99.90;;;;;;5017327;28;20190;-70
2022/11/10 04:29:05;;;;;;;6.00;5.57;;;9.70;99.90;;;;;;5013923;28;20190;-71
2022/11/10 04:31:32;;;;;;;7.03;5.93;;;9.80;99.90;;;;;;5018095;28;20250;-69
2022/11/10 04:33:58;;;;;;;7.17;5.27;;;9.80;99.90;;;;;;5016892;28;20188;-67
2022/11/10 04:36:26;;;;;;;6.23;5.77;;;9.90;99.90;;;;;;5018298;28;20190;-70
2022/11/10 04:38:54;;;;;;;5.23;4.87;;;9.90;99.90;;;;;;5017989;28;20571;-69
2022/11/10 04:41:20;;;;;;;12.47;5.17;;;10.00;99.90;;;;;;4997323;28;20624;-69
2022/11/10 04:43:45;;;;;;;6.03;5.47;;;10.00;99.90;;;;;;4997794;28;20207;-69
2022/11/10 04:46:32;;;;;;;6.77;5.10;;;10.00;99.90;;;;;;5017658;28;20583;-71
2022/11/10 04:48:58;;;;;;;5.10;4.60;;;10.00;99.90;;;;;;5017035;28;20180;-67
2022/11/10 04:51:32;;;;;;;9.07;5.53;;;10.00;99.90;;;;;;5016957;28;20211;-69
2022/11/10 04:53:58;;;;;;;7.70;5.23;;;10.00;99.90;;;;;;5018764;28;20175;-71
2022/11/10 04:56:25;;;;;;;5.80;4.93;;;9.90;99.90;;;;;;5017145;28;20184;-69
2022/11/10 04:58:52;;;;;;;5.70;4.67;;;9.90;99.90;;;;;;5017397;28;20549;-64
2022/11/10 05:01:21;;;;;;;11.77;5.17;;;9.90;99.90;;;;;;5017370;28;20200;-64
2022/11/10 05:03:47;;;;;;;6.97;5.33;;;9.90;99.90;;;;;;5017917;28;20259;-66
2022/11/10 05:06:13;;;;;;;6.33;5.83;;;9.90;99.90;;;;;;5017058;28;20180;-64
2022/11/10 05:08:41;;;;;;;12.20;5.80;;;9.90;99.90;;;;;;5017296;28;20642;-65
2022/11/10 05:11:07;;;;;;;5.97;5.50;;;9.90;99.90;;;;;;5017281;28;20253;-65
2022/11/10 05:13:32;;;;;;;7.83;5.47;;;9.80;99.90;;;;;;5016260;28;20188;-65
2022/11/10 05:15:58;;;;;;;10.00;5.33;;;9.80;99.90;;;;;;5017442;28;20251;-65
2022/11/10 05:18:24;;;;;;;12.50;5.37;;;9.90;99.90;;;;;;5016293;28;20287;-65
2022/11/10 05:20:52;;;;;;;9.87;6.07;;;9.80;99.90;;;;;;5014321;28;20218;-65
2022/11/10 05:23:37;;;;;;;7.40;5.53;;;9.80;99.90;;;;;;5015662;28;20179;-65
2022/11/10 05:26:14;;;;;;;8.57;5.50;;;9.80;99.90;;;;;;4995620;28;20650;-65
2022/11/10 05:28:41;;;;;;;6.43;5.37;;;9.80;99.90;;;;;;5007345;28;20653;-65
2022/11/10 05:31:08;;;;;;;5.40;5.00;;;9.70;99.90;;;;;;5015910;28;20200;-66
2022/11/10 05:33:34;;;;;;;5.37;4.93;;;9.70;99.90;;;;;;5013669;28;20172;-65
2022/11/10 05:36:00;;;;;;;9.83;6.10;;;9.70;99.90;;;;;;5012187;28;20180;-66
2022/11/10 05:38:26;;;;;;;10.80;5.43;;;9.70;99.90;;;;;;5011793;28;20200;-65
2022/11/10 05:40:52;;;;;;;7.03;5.10;;;9.70;99.90;;;;;;5011806;28;20196;-66
2022/11/10 05:43:18;;;;;;;6.70;4.83;;;9.70;99.90;;;;;;5011720;28;20673;-65
2022/11/10 05:45:43;;;;;;;15.03;5.50;;;9.70;99.90;;;;;;5012276;28;20211;-65
2022/11/10 05:48:09;;;;;;;5.00;4.80;;;9.70;99.90;;;;;;5011831;28;20259;-65
2022/11/10 05:50:35;;;;;;;5.20;4.80;;;9.70;99.90;;;;;;5011680;28;20200;-65
2022/11/10 05:53:00;;;;;;;11.97;5.80;;;9.60;99.90;;;;;;5012174;28;20183;-65
2022/11/10 05:55:27;;;;;;;14.93;5.63;;;9.60;99.90;;;;;;5012318;28;20612;-65
2022/11/10 05:57:55;;;;;;;8.27;5.37;;;9.60;99.90;;;;;;5013601;28;20216;-65
2022/11/10 06:00:23;;;;;;;6.67;5.13;;;9.60;99.90;;;;;;5013658;28;20204;-66
2022/11/10 06:03:09;;;;;;;7.87;6.17;;;9.60;99.90;;;;;;5014685;28;20238;-66
2022/11/10 06:05:35;;;;;;;9.90;5.70;;;9.60;99.90;;;;;;5013207;28;20171;-65
2022/11/10 06:08:02;;;;;;;5.73;5.17;;;9.50;99.90;;;;;;5016997;28;20252;-65
2022/11/10 06:10:28;;;;;;;10.87;5.37;;;9.50;99.90;;;;;;5011189;28;20211;-65
2022/11/10 06:12:53;;;;;;;6.10;5.10;;;9.60;99.90;;;;;;5011754;28;20593;-65
2022/11/10 06:15:20;;;;;;;15.23;4.70;;;9.60;99.90;;;;;;5011333;28;20191;-65
2022/11/10 06:17:46;;;;;;;8.53;5.27;;;9.60;99.90;;;;;;5011177;28;20203;-65
2022/11/10 06:20:13;;;;;;;12.47;5.40;;;9.60;99.90;;;;;;5011213;28;20196;-65
2022/11/10 06:22:39;;;;;;;7.70;5.07;;;9.60;99.90;;;;;;5011000;28;20602;-65
2022/11/10 06:25:05;;;;;;;11.60;5.43;;;9.60;99.90;;;;;;5011303;28;20199;-65
2022/11/10 06:27:31;;;;;;;5.60;5.10;;;9.70;99.90;;;;;;5013749;28;20630;-65
2022/11/10 06:29:56;;;;;;;8.30;5.80;;;9.70;99.90;;;;;;4994008;28;20196;-65
2022/11/10 06:32:22;;;;;;;5.50;5.20;;;9.80;99.90;;;;;;5011931;28;20180;-65
2022/11/10 06:34:48;;;;;;;9.57;5.23;;;9.80;99.90;;;;;;5011129;28;20176;-65
2022/11/10 06:37:13;;;;;;;8.67;4.97;;;9.80;99.90;;;;;;5011201;28;20191;-65
2022/11/10 06:39:39;;;;;;;10.30;5.60;;;9.80;99.90;;;;;;5010724;28;20215;-65
2022/11/10 06:42:05;;;;;;;6.67;5.90;;;9.80;99.90;;;;;;5011460;28;20642;-65
2022/11/10 06:44:30;;;;;;;6.60;5.40;;;9.80;99.90;;;;;;5011139;28;20176;-65
2022/11/10 06:46:56;;;;;;;10.83;6.10;;;9.70;99.90;;;;;;5011369;28;20180;-65
2022/11/10 06:49:21;;;;;;;13.77;6.10;;;9.70;99.90;;;;;;5009417;28;20176;-65
2022/11/10 06:51:47;;;;;;;6.00;5.43;;;9.70;99.90;;;;;;5010118;28;20580;-65
2022/11/10 06:54:13;;;;;;;6.83;5.87;;;9.80;99.90;;;;;;5009797;28;20275;-65
2022/11/10 06:56:38;;;;;;;7.70;5.67;;;9.70;99.90;;;;;;5011293;28;20634;-66
2022/11/10 06:59:04;;;;;;;6.17;5.43;;;9.70;99.90;;;;;;5010810;28;20247;-66
2022/11/10 07:01:30;;;;;;;5.60;5.20;;;9.70;99.90;;;;;;5009743;28;20736;-66
2022/11/10 07:03:55;;;;;;;9.97;5.90;;;9.60;99.90;;;;;;5009916;28;20267;-66
2022/11/10 07:06:21;;;;;;;5.87;5.40;;;9.70;99.90;;;;;;5008327;28;20211;-66
2022/11/10 07:08:47;;;;;;;5.70;5.30;;;9.70;99.90;;;;;;5024102;28;20207;-65
2022/11/10 07:11:13;;;;;;;8.37;5.43;;;9.70;99.90;;;;;;5014253;28;20731;-65
2022/11/10 07:13:39;;;;;;;12.30;5.20;;;9.70;99.90;;;;;;5012914;28;20184;-65
2022/11/10 07:16:06;;;;;;;6.23;5.00;;;9.70;99.90;;;;;;5012899;28;20176;-65
2022/11/10 07:18:32;;;;;;;11.43;5.63;;;9.70;99.90;;;;;;5013992;28;20208;-65
2022/11/10 07:21:00;;;;;;;5.70;5.20;;;9.70;99.90;;;;;;5014159;28;20184;-65
2022/11/10 07:23:26;;;;;;;10.70;5.83;;;9.70;99.90;;;;;;5013988;28;20180;-65
2022/11/10 07:25:51;;;;;;;7.70;5.30;;;9.70;99.90;;;;;;5014459;28;20171;-65
2022/11/10 07:28:17;;;;;;;6.40;5.80;;;9.70;99.90;;;;;;5013511;28;20355;-65
2022/11/10 07:30:43;;;;;;;8.87;5.20;;;9.70;99.90;;;;;;5014010;28;20212;-63
2022/11/10 07:33:11;;;;;;;6.23;5.77;;;9.80;99.90;;;;;;5013967;28;20179;-65
2022/11/10 07:35:36;;;;;;;15.47;5.53;;;9.80;99.90;;;;;;5014101;28;20541;-65
2022/11/10 07:38:10;;;;;;;11.87;6.23;;;9.80;99.90;;;;;;5014412;28;20200;-66
2022/11/10 07:40:36;;;;;;;6.53;5.00;;;9.90;99.90;;;;;;5013788;28;20195;-65
2022/11/10 07:43:02;;;;;;;13.27;5.17;;;9.90;99.90;;;;;;5013594;28;20196;-65
2022/11/10 07:45:28;;;;;;;11.20;5.83;;;10.00;99.90;;;;;;5013934;28;20172;-66
2022/11/10 07:48:01;;;;;;;7.73;4.73;;;10.10;99.90;;;;;;5014022;28;20263;-65
2022/11/10 07:50:27;;;;;;;11.97;6.00;;;10.30;99.90;;;;;;5013797;28;20227;-65
2022/11/10 07:53:04;;;;;;;7.13;4.80;;;10.60;99.90;;;;;;5012504;28;20209;-65
2022/11/10 07:55:30;;;;;;;7.40;4.93;;;11.00;99.90;;;;;;5012870;28;20250;-66
2022/11/10 07:57:57;;;;;;;8.80;5.60;;;11.40;99.90;;;;;;5014000;28;20635;-66
2022/11/10 08:00:22;;;;;;;9.13;5.53;;;11.90;99.90;;;;;;5012054;28;20196;-66
2022/11/10 08:02:48;;;;;;;6.43;4.57;;;12.30;99.90;;;;;;5013832;28;20184;-66
2022/11/10 08:05:14;;;;;;;9.03;4.33;;;12.70;99.90;;;;;;5013598;28;20208;-66
2022/11/10 08:07:39;;;;;;;10.83;4.93;;;13.10;99.90;;;;;;5013422;28;20187;-66
2022/11/10 08:10:06;;;;;;;5.43;4.50;;;13.50;99.90;;;;;;5013012;28;20208;-66
2022/11/10 08:12:31;;;;;;;9.87;4.80;;;13.80;99.90;;;;;;5013175;28;20184;-66
2022/11/10 08:14:57;;;;;;;5.70;4.00;;;14.10;99.90;;;;;;5013566;28;20256;-66
2022/11/10 08:17:23;;;;;;;6.13;3.90;;;14.50;99.90;;;;;;5012991;28;20192;-66
2022/11/10 08:19:48;;;;;;;5.70;4.10;;;14.70;99.90;;;;;;5012784;28;20188;-64
2022/11/10 08:22:14;;;;;;;4.13;3.40;;;14.90;99.90;;;;;;5012854;28;20554;-63
2022/11/10 08:24:39;;;;;;;4.20;3.90;;;15.10;99.90;;;;;;5012133;28;20173;-66
2022/11/10 08:27:05;;;;;;;6.03;4.03;;;15.20;99.90;;;;;;5012804;28;20172;-66
2022/11/10 08:29:31;;;;;;;6.33;3.40;;;15.20;99.90;;;;;;5012719;28;20180;-66
2022/11/10 08:31:56;;;;;;;7.30;4.87;;;15.50;99.90;;;;;;5013001;28;20511;-66
2022/11/10 08:34:22;;;;;;;3.63;3.43;;;15.70;99.90;;;;;;5012813;28;20183;-66
2022/11/10 08:36:50;;;;;;;4.83;4.27;;;16.00;99.90;;;;;;5013016;28;20184;-66
2022/11/10 08:39:16;;;;;;;6.23;3.93;;;16.10;99.90;;;;;;5012424;28;20238;-65
2022/11/10 08:41:41;;;;;;;7.27;3.80;;;16.20;99.90;;;;;;5014592;28;20184;-66
2022/11/10 08:44:07;;;;;;;5.37;4.10;;;16.40;99.90;;;;;;5028199;28;20692;-66
2022/11/10 08:46:32;;;;;;;5.47;3.47;;;16.60;99.90;;;;;;5012764;28;20176;-64
2022/11/10 08:48:58;;;;;;;4.10;3.70;;;16.80;99.90;;;;;;5012389;28;20256;-65
2022/11/10 08:51:23;;;;;;;10.20;3.50;;;16.70;99.90;;;;;;5012196;28;20192;-64
2022/11/10 08:53:49;;;;;;;4.87;3.87;;;16.20;99.90;;;;;;5012589;28;20235;-65
2022/11/10 08:56:15;;;;;;;4.67;3.23;;;16.10;99.90;;;;;;5030912;28;20189;-65
2022/11/10 08:58:40;;;;;;;8.80;4.00;;;15.80;99.90;;;;;;5023148;28;20208;-65
2022/11/10 09:01:10;;;;;;;5.50;3.60;;;15.90;99.90;;;;;;5010258;28;20526;-65
2022/11/10 09:03:36;;;;;;;4.97;3.80;;;16.20;99.90;;;;;;5012315;28;20230;-65
2022/11/10 09:06:02;;;;;;;5.03;3.70;;;15.90;99.90;;;;;;5012484;28;20172;-65
2022/11/10 09:08:28;;;;;;;5.47;3.60;;;15.90;99.90;;;;;;5012157;28;20187;-65
2022/11/10 09:10:53;;;;;;;4.97;3.40;;;16.10;99.90;;;;;;5012136;28;20535;-65
2022/11/10 09:13:22;;;;;;;12.23;4.20;;;16.30;99.90;;;;;;5010833;28;20191;-65
2022/11/10 09:15:47;;;;;;;7.30;3.70;;;16.40;99.90;;;;;;5011821;28;20259;-65
2022/11/10 09:18:14;;;;;;;9.63;4.50;;;16.40;99.90;;;;;;5011746;28;20287;-65
2022/11/10 09:20:40;;;;;;;6.90;3.90;;;16.40;99.90;;;;;;5011935;28;20531;-65
2022/11/10 09:23:08;;;;;;;7.37;3.50;;;16.40;99.90;;;;;;5012204;28;20183;-65
2022/11/10 09:25:34;;;;;;;9.70;3.37;;;16.50;99.90;;;;;;5011518;28;20318;-65
2022/11/10 09:28:00;;;;;;;6.60;3.57;;;16.90;99.90;;;;;;5011717;28;20210;-64
2022/11/10 09:30:26;;;;;;;11.00;3.43;;;17.10;99.90;;;;;;5009165;28;20456;-65
2022/11/10 09:32:53;;;;;;;6.23;3.70;;;17.30;99.90;;;;;;5010769;28;20184;-64
2022/11/10 09:35:18;;;;;;;5.17;3.33;;;17.50;99.90;;;;;;5011911;28;20649;-65
2022/11/10 09:37:44;;;;;;;4.17;3.57;;;17.60;99.90;;;;;;5011659;28;22105;-65
2022/11/10 09:40:17;;;;;;;5.00;3.53;;;17.70;99.90;;;;;;5011289;28;20196;-65
2022/11/10 09:42:43;;;;;;;4.00;3.60;;;17.60;99.90;;;;;;5010685;28;20179;-64
2022/11/10 09:45:27;;;;;;;7.07;3.67;;;17.50;99.90;;;;;;5011371;28;20536;-64
2022/11/10 09:48:09;;;;;;;8.03;3.83;;;17.30;99.90;;;;;;5011941;28;20211;-64
2022/11/10 09:50:42;;;;;;;3.83;3.07;;;17.10;99.90;;;;;;5011317;28;20673;-65
2022/11/10 09:53:16;;;;;;;6.80;3.70;;;17.00;99.90;;;;;;5009909;28;20180;-65
2022/11/10 09:55:52;;;;;;;8.20;3.63;;;17.00;99.90;;;;;;5011825;28;20179;-65
2022/11/10 09:58:22;;;;;;;6.87;3.83;;;16.90;99.90;;;;;;5011387;28;20199;-65
2022/11/10 10:01:21;;;;;;;10.50;3.93;;;17.00;99.90;;;;;;5010070;28;20199;-65
2022/11/10 10:03:53;;;;;;;4.73;4.10;;;17.10;99.90;;;;;;5011503;28;20184;-65
2022/11/10 10:06:21;;;;;;;4.57;3.97;;;17.20;99.90;;;;;;5008933;28;20216;-65
2022/11/10 10:09:14;;;;;;;7.27;3.77;;;17.20;99.90;;;;;;5011607;28;20179;-65
2022/11/10 10:11:56;;;;;;;6.33;4.13;;;17.10;99.90;;;;;;5011843;28;20322;-65
2022/11/10 10:14:49;;;;;;;4.80;3.30;;;17.00;99.90;;;;;;5009915;28;20274;-65
2022/11/10 10:17:32;;;;;;;7.80;5.03;;;16.90;99.90;;;;;;5011559;28;20172;-65
2022/11/10 10:20:23;;;;;;;5.60;3.73;;;16.90;99.90;;;;;;5011362;28;20203;-65
2022/11/10 10:22:49;;;;;;;4.13;3.83;;;16.90;99.90;;;;;;5009866;28;20196;-65
2022/11/10 10:25:23;;;;;;;5.27;3.73;;;17.10;99.90;;;;;;5010101;28;20172;-65
2022/11/10 10:27:57;;;;;;;5.03;3.80;;;17.10;99.90;;;;;;5011072;28;20263;-65
2022/11/10 10:30:22;;;;;;;5.10;3.60;;;17.00;99.90;;;;;;5011125;28;20626;-65
2022/11/10 10:32:55;;;;;;;10.90;3.97;;;17.20;99.90;;;;;;5011217;28;20184;-65
2022/11/10 10:35:21;;;;;;;4.40;3.53;;;17.30;99.90;;;;;;5011096;28;20215;-65
2022/11/10 10:37:49;;;;;;;7.20;3.50;;;17.40;99.90;;;;;;5011214;28;20319;-65
2022/11/10 10:40:20;;;;;;;4.03;3.53;;;17.40;99.90;;;;;;5010553;28;20657;-65
2022/11/10 10:42:46;;;;;;;4.83;3.90;;;17.50;99.90;;;;;;5012741;28;20203;-65
2022/11/10 10:45:21;;;;;;;4.63;3.10;;;17.80;99.90;;;;;;5013489;28;20180;-65
2022/11/10 10:47:52;;;;;;;5.10;3.03;;;17.90;99.90;;;;;;5011315;28;20574;-65
2022/11/10 10:50:40;;;;;;;4.07;3.23;;;18.00;99.90;;;;;;5014147;28;20215;-66
2022/11/10 10:53:12;;;;;;;7.30;4.17;;;18.20;99.90;;;;;;5013831;28;20210;-65
2022/11/10 10:55:44;;;;;;;3.80;3.50;;;18.10;99.90;;;;;;5013677;28;20649;-65
2022/11/10 10:58:25;;;;;;;6.07;4.10;;;17.90;99.90;;;;;;5014668;28;20203;-65
2022/11/10 11:00:55;;;;;;;5.67;3.37;;;17.60;99.90;;;;;;5013020;28;20207;-64
2022/11/10 11:03:26;;;;;;;3.67;3.03;;;17.80;99.90;;;;;;5014141;28;20207;-65
2022/11/10 11:06:05;;;;;;;4.03;3.70;;;17.90;99.90;;;;;;5013507;28;20172;-67
2022/11/10 11:08:31;;;;;;;7.30;3.47;;;18.00;99.90;;;;;;5013375;28;20191;-66
2022/11/10 11:11:06;;;;;;;7.70;3.63;;;18.10;99.90;;;;;;5012648;28;20208;-66
2022/11/10 11:13:32;;;;;;;3.83;3.37;;;18.30;99.90;;;;;;5014856;28;20672;-66
2022/11/10 11:16:06;;;;;;;3.73;3.40;;;18.50;99.90;;;;;;5013022;28;20180;-65
2022/11/10 11:18:33;;;;;;;4.33;3.60;;;18.60;99.90;;;;;;5014131;28;20218;-65
2022/11/10 11:21:41;;;;;;;5.23;3.80;;;18.50;99.90;;;;;;5014551;28;20212;-65
2022/11/10 11:24:28;;;;;;;4.00;3.00;;;18.40;99.90;;;;;;5013918;28;20172;-65
2022/11/10 11:27:04;;;;;;;7.13;3.70;;;18.20;99.90;;;;;;5014369;28;20173;-65
2022/11/10 11:29:51;;;;;;;3.70;3.40;;;17.90;99.90;;;;;;5014091;28;20704;-65
2022/11/10 11:32:31;;;;;;;5.40;3.70;;;17.90;99.90;;;;;;5012830;28;20239;-66
2022/11/10 11:35:12;;;;;;;4.50;3.80;;;17.90;99.90;;;;;;5014029;28;20215;-65
2022/11/10 11:37:47;;;;;;;4.50;3.67;;;18.00;99.90;;;;;;5013084;28;20184;-65
2022/11/10 11:40:52;;;;;;;4.07;3.50;;;18.10;99.90;;;;;;5013147;28;20203;-65
2022/11/10 11:43:56;;;;;;;5.37;3.37;;;18.00;99.90;;;;;;5002963;28;20195;-65
2022/11/10 11:46:49;;;;;;;5.23;3.50;;;18.10;99.90;;;;;;5012421;28;20187;-65
2022/11/10 11:49:36;;;;;;;3.17;2.97;;;18.20;99.90;;;;;;5013607;28;20282;-65
2022/11/10 11:52:29;;;;;;;3.40;3.20;;;18.30;99.90;;;;;;5007694;28;20561;-65
2022/11/10 11:55:25;;;;;;;6.20;3.23;;;18.60;99.90;;;;;;5013646;28;20211;-65
2022/11/10 11:58:04;;;;;;;4.13;3.73;;;18.60;99.90;;;;;;5012756;28;20246;-65
2022/11/10 12:00:53;;;;;;;5.07;3.93;;;18.50;99.90;;;;;;5013057;28;20204;-66
2022/11/10 12:03:35;;;;;;;3.63;3.30;;;18.50;99.90;;;;;;5012053;28;20230;-66
2022/11/10 12:06:18;;;;;;;3.10;2.90;;;18.60;99.90;;;;;;5013774;28;20540;-65
2022/11/10 12:08:54;;;;;;;4.43;3.33;;;18.70;99.90;;;;;;5011664;28;20354;-66
2022/11/10 12:11:43;;;;;;;3.17;2.97;;;18.80;99.90;;;;;;5012905;28;20238;-66
2022/11/10 12:14:27;;;;;;;4.17;2.90;;;18.90;99.90;;;;;;4993825;28;20225;-65
2022/11/10 12:17:04;;;;;;;6.57;3.30;;;19.00;99.90;;;;;;5004418;28;20565;-66
2022/11/10 12:20:19;;;;;;;4.43;3.60;;;18.90;99.90;;;;;;5013327;28;20203;-66
2022/11/10 12:23:13;;;;;;;3.60;3.40;;;18.80;99.90;;;;;;4995632;28;20191;-65
2022/11/10 12:26:19;;;;;;;7.47;3.40;;;18.70;99.90;;;;;;5033314;28;20206;-66
2022/11/10 12:28:52;;;;;;;7.80;3.30;;;18.70;99.90;;;;;;4992607;28;20180;-65
2022/11/10 12:31:22;;;;;;;4.57;3.60;;;18.70;99.90;;;;;;4993133;28;20193;-65
2022/11/10 12:34:04;;;;;;;6.37;3.13;;;18.70;99.90;;;;;;4993985;28;20268;-65
2022/11/10 12:36:31;;;;;;;3.73;3.43;;;18.90;99.90;;;;;;4997930;28;20188;-65
2022/11/10 12:39:10;;;;;;;3.33;3.07;;;19.10;99.90;;;;;;5013145;28;20216;-66
2022/11/10 12:41:42;;;;;;;3.43;3.00;;;19.10;99.90;;;;;;4993352;28;20197;-65
2022/11/10 12:44:19;;;;;;;4.27;3.30;;;19.10;99.90;;;;;;4993855;28;20223;-66
2022/11/10 12:46:49;;;;;;;3.10;2.90;;;19.10;99.90;;;;;;4994324;28;20169;-66
2022/11/10 12:49:35;;;;;;;5.97;3.30;;;18.90;99.90;;;;;;4993125;28;20184;-65
2022/11/10 12:52:16;;;;;;;3.77;3.47;;;19.20;99.90;;;;;;5011900;28;20188;-66
2022/11/10 12:54:44;;;;;;;4.33;3.00;;;19.40;99.90;;;;;;5010711;28;20191;-65
2022/11/10 12:57:13;;;;;;;3.87;3.57;;;19.40;99.90;;;;;;5012626;28;20199;-65
2022/11/10 12:59:41;;;;;;;3.30;3.10;;;19.30;99.90;;;;;;5012156;28;20204;-65
2022/11/10 13:02:22;;;;;;;5.57;3.20;;;19.30;99.90;;;;;;5012648;28;20179;-65
2022/11/10 13:05:14;;;;;;;3.10;2.90;;;19.40;99.90;;;;;;5011754;28;20204;-65
2022/11/10 13:08:22;;;;;;;3.83;3.00;;;19.20;99.90;;;;;;5012616;28;20556;-66
2022/11/10 13:11:15;;;;;;;3.37;3.07;;;19.20;99.90;;;;;;4993061;28;20603;-65
2022/11/10 13:13:45;;;;;;;3.00;2.80;;;19.40;99.90;;;;;;4995227;28;20196;-65
2022/11/10 13:16:37;;;;;;;2.97;2.87;;;19.50;99.90;;;;;;5012212;28;20662;-66